Sabinal, Texas
Current Conditions -  °F | °C
As of 3:35 AM on Monday 22 Dec 2014 (Local Time) from KUVA Reporting Station
Haze Haze  
Wind Chill: 53°   Ceiling: 300
Heat Index: 53°   Visibility: 1.5mi
Dew Point: 52°   Wind: 3mph
Humidity: 99%   Direction: 110°ESE
Pressure: 29.79"   Gusts: NA
Location:  29.32°N, 99.47°W
Report Text: KUVA 220935Z AUTO 11003KT 1 1/2SM BR OVC003 12/11 A2979 RMK AO2 T01150113
Loading
Personal Weather Stations






























Interactive Weather Map New forecast layout! Learn more

10-Day Weather Forecast

Advertisements
Track Severe Weather on mobile